Observations météo à Brive (19031)
Dimanche 3 Mai 2026
Température maximale
23.9°C
à 16:42
06h 06h UTC
Température minimale
14.3°C
à 05:54
18h 18h UTC
Rafale maximale
43 km/h
à 11:06
00h 00h UTC
Précipitations
10.3 mm
06h 06h UTC
Ensoleillement
1h 52 mins
00h 00h UTC
Relevés météo
Afficher les données infra-horaire (6 mins)
| Heure | Température °C | Point de rosée °C | Humidité % | Vent moyen (raf.), km/h | Précipitations mm | Ensoleillement min | Pression hPa |
|---|---|---|---|---|---|---|---|
| 23:18 | 14.1 °C | 13.1 °C | 94 % | 3 km/h (7 km/h) | 0.2 mm | 0 min | 1014.4 hPa |
| 23:12 | 14.1 °C | 13.1 °C | 94 % | 3 km/h (7 km/h) | 0 mm | 0 min | 1014.4 hPa |
| 23:06 | 14.1 °C | 13.1 °C | 94 % | 4 km/h (7 km/h) | 0.2 mm | 0 min | 1014.4 hPa |
| 23:00 | 14.1 °C | 13.1 °C | 94 % | 4 km/h (7 km/h) | 0 mm | 0 min | 1014.4 hPa |
| 22:54 | 14.1 °C | 13.1 °C | 94 % | 4 km/h (7 km/h) | 0.2 mm | 0 min | 1014.4 hPa |
| 22:48 | 14.2 °C | 13.2 °C | 94 % | 3 km/h (5 km/h) | 0 mm | 0 min | 1014.5 hPa |
| 22:42 | 14.2 °C | 13.1 °C | 93 % | 3 km/h (6 km/h) | 0 mm | 0 min | 1014.5 hPa |
| 22:36 | 14.2 °C | 13.1 °C | 93 % | 3 km/h (6 km/h) | 0.2 mm | 0 min | 1014.5 hPa |
| 22:30 | 14.2 °C | 13.1 °C | 93 % | 3 km/h (7 km/h) | 0 mm | 0 min | 1014.5 hPa |
| 22:24 | 14.3 °C | 13.2 °C | 93 % | 4 km/h (7 km/h) | 0.2 mm | 0 min | 1014.5 hPa |
| 22:18 | 14.3 °C | 13.2 °C | 93 % | 4 km/h (7 km/h) | 0 mm | 0 min | 1014.4 hPa |
| 22:12 | 14.3 °C | 13 °C | 92 % | 4 km/h (6 km/h) | 0 mm | 0 min | 1014.4 hPa |
| 22:06 | 14.2 °C | 12.9 °C | 92 % | 4 km/h (8 km/h) | 0.2 mm | 0 min | 1014.5 hPa |
| 22:00 | 14.3 °C | 13 °C | 92 % | 4 km/h (8 km/h) | 0.4 mm | 0 min | 1014.4 hPa |
| 21:54 | 14.3 °C | 12.8 °C | 91 % | 4 km/h (7 km/h) | 0.2 mm | 0 min | 1014.4 hPa |
| 21:48 | 14.3 °C | 12.8 °C | 91 % | 3 km/h (6 km/h) | 0.6 mm | 0 min | 1014.4 hPa |
| 21:42 | 14.4 °C | 12.9 °C | 91 % | 3 km/h (4 km/h) | 0.6 mm | 0 min | 1014.3 hPa |
| 21:36 | 14.4 °C | 12.8 °C | 90 % | 3 km/h (5 km/h) | 0.4 mm | 0 min | 1014.2 hPa |
| 21:30 | 14.5 °C | 12.7 °C | 89 % | 4 km/h (7 km/h) | 0.4 mm | 0 min | 1014.1 hPa |
| 21:24 | 14.5 °C | 12.7 °C | 89 % | 5 km/h (8 km/h) | 0.4 mm | 0 min | 1013.9 hPa |
| 21:18 | 14.7 °C | 12.7 °C | 88 % | 5 km/h (10 km/h) | 0.5 mm | 0 min | 1013.8 hPa |
| 21:12 | 14.8 °C | 13 °C | 89 % | 5 km/h (10 km/h) | 0.2 mm | 0 min | 1013.8 hPa |
| 21:06 | 15.3 °C | 13.8 °C | 91 % | 4 km/h (9 km/h) | 0.4 mm | 0 min | 1013.6 hPa |
| 21:00 | 15.3 °C | 13.7 °C | 90 % | 3 km/h (8 km/h) | 0.4 mm | 0 min | 1013.5 hPa |
| 20:54 | 15.3 °C | 13.7 °C | 90 % | 4 km/h (8 km/h) | 0.2 mm | 0 min | 1013.5 hPa |
| 20:48 | 15.3 °C | 13.5 °C | 89 % | 6 km/h (9 km/h) | 0.6 mm | 0 min | 1013.3 hPa |
| 20:42 | 15.4 °C | 13.4 °C | 88 % | 6 km/h (10 km/h) | 0.6 mm | 0 min | 1013.2 hPa |
| 20:36 | 15.4 °C | 13.2 °C | 87 % | 5 km/h (10 km/h) | 0 mm | 0 min | 1013.1 hPa |
| 20:30 | 15.5 °C | 13.3 °C | 87 % | 4 km/h (9 km/h) | 0.2 mm | 0 min | 1012.9 hPa |
| 20:24 | 15.5 °C | 13.2 °C | 86 % | 6 km/h (10 km/h) | 0.2 mm | 0 min | 1012.7 hPa |
| 20:18 | 15.6 °C | 13.3 °C | 86 % | 8 km/h (12 km/h) | 0.4 mm | 0 min | 1012.6 hPa |
| 20:12 | 15.7 °C | 13.4 °C | 86 % | 9 km/h (17 km/h) | 0.4 mm | 0 min | 1012.5 hPa |
| 20:06 | 15.9 °C | 13.6 °C | 86 % | 9 km/h (17 km/h) | 0.2 mm | 0 min | 1012.4 hPa |
| 20:00 | 15.9 °C | 13.6 °C | 86 % | 7 km/h (17 km/h) | 0.2 mm | 0 min | 1012.2 hPa |
| 19:54 | 16 °C | 13.5 °C | 85 % | 9 km/h (21 km/h) | 0.2 mm | 0 min | 1012.1 hPa |
| 19:48 | 16.3 °C | 13.6 °C | 84 % | 13 km/h (26 km/h) | 0.2 mm | 0 min | 1011.8 hPa |
| 19:42 | 16.7 °C | 13.6 °C | 82 % | 12 km/h (26 km/h) | 0.8 mm | 0 min | 1011.4 hPa |
| 19:36 | 17.4 °C | 13.5 °C | 78 % | 8 km/h (18 km/h) | 0.2 mm | 0 min | 1011.4 hPa |
| 19:30 | 17.6 °C | 13.1 °C | 75 % | 8 km/h (17 km/h) | 0 mm | 0 min | 1011.2 hPa |
| 19:24 | 17.8 °C | 12.9 °C | 73 % | 9 km/h (20 km/h) | 0 mm | 0 min | 1011.3 hPa |
| 19:18 | 18.1 °C | 13 °C | 72 % | 10 km/h (22 km/h) | 0 mm | 0 min | 1011.1 hPa |
| 19:12 | 18.6 °C | 13 °C | 70 % | 8 km/h (18 km/h) | 0 mm | 0 min | 1011.1 hPa |
| 19:06 | 19.3 °C | 13 °C | 67 % | 7 km/h (18 km/h) | 0 mm | 0 min | 1010.9 hPa |
| 19:00 | 20.1 °C | 12.6 °C | 62 % | 6 km/h (17 km/h) | 0 mm | 0 min | 1010.8 hPa |
| 18:54 | 20.8 °C | 11.1 °C | 54 % | 8 km/h (15 km/h) | 0 mm | 0 min | 1010.9 hPa |
| 18:48 | 20.8 °C | 11.4 °C | 55 % | 7 km/h (15 km/h) | 0 mm | 0 min | 1011 hPa |
| 18:42 | 21 °C | 11.6 °C | 55 % | 6 km/h (17 km/h) | 0 mm | 0 min | 1010.8 hPa |
| 18:36 | 21.1 °C | 11.4 °C | 54 % | 8 km/h (21 km/h) | 0 mm | 0 min | 1010.8 hPa |
| 18:30 | 21.2 °C | 11.5 °C | 54 % | 9 km/h (21 km/h) | 0 mm | 0 min | 1010.8 hPa |
| 18:24 | 21.4 °C | 11.4 °C | 53 % | 8 km/h (18 km/h) | 0 mm | 0 min | 1010.8 hPa |
| 18:18 | 21.5 °C | 11.5 °C | 53 % | 8 km/h (18 km/h) | 0 mm | 0 min | 1010.8 hPa |
| 18:12 | 21.7 °C | 11.7 °C | 53 % | 9 km/h (18 km/h) | 0 mm | 0 min | 1010.7 hPa |
| 18:06 | 21.8 °C | 11.8 °C | 53 % | 9 km/h (16 km/h) | 0 mm | 0 min | 1010.7 hPa |
| 18:00 | 21.7 °C | 11.7 °C | 53 % | 8 km/h (21 km/h) | 0 mm | 0 min | 1010.8 hPa |
| 17:54 | 21.7 °C | 12 °C | 54 % | 9 km/h (21 km/h) | 0 mm | 0 min | 1011 hPa |
| 17:48 | 21.6 °C | 11.9 °C | 54 % | 10 km/h (21 km/h) | 0 mm | 0 min | 1011 hPa |
| 17:42 | 21.5 °C | 11.8 °C | 54 % | 8 km/h (21 km/h) | 0 mm | 0 min | 1011.1 hPa |
| 17:36 | 21.3 °C | 12.4 °C | 57 % | 7 km/h (15 km/h) | 0 mm | 0 min | 1011.2 hPa |
| 17:30 | 21 °C | 12.2 °C | 57 % | 8 km/h (18 km/h) | 0 mm | 0 min | 1011.2 hPa |
| 17:24 | 20.9 °C | 11.8 °C | 56 % | 10 km/h (24 km/h) | 0 mm | 0 min | 1011.4 hPa |
| 17:18 | 20.8 °C | 11.7 °C | 56 % | 16 km/h (33 km/h) | 0 mm | 0 min | 1011.5 hPa |
| 17:12 | 20.9 °C | 11.2 °C | 54 % | 18 km/h (35 km/h) | 0 mm | 0 min | 1011.5 hPa |
| 17:06 | 21.7 °C | 11.1 °C | 51 % | 14 km/h (35 km/h) | 0 mm | 0 min | 1011.4 hPa |
| 17:00 | 22.6 °C | 11 °C | 48 % | 11 km/h (22 km/h) | 0 mm | 0 min | 1011.3 hPa |
| 16:54 | 23.3 °C | 11.7 °C | 48 % | 9 km/h (22 km/h) | 0 mm | 0 min | 1011.1 hPa |
| 16:48 | 23.6 °C | 11.3 °C | 46 % | 9 km/h (22 km/h) | 0 mm | 0 min | 1011.2 hPa |
| 16:42 | 23.9 °C | 11.9 °C | 47 % | 8 km/h (22 km/h) | 0 mm | 5 min | 1011.3 hPa |
| 16:36 | 23.6 °C | 11.9 °C | 48 % | 6 km/h (14 km/h) | 0 mm | 3 min | 1011.3 hPa |
| 16:30 | 23.4 °C | 11.8 °C | 48 % | 6 km/h (11 km/h) | 0 mm | 6 min | 1011.4 hPa |
| 16:24 | 22.6 °C | 11.9 °C | 51 % | 6 km/h (14 km/h) | 0 mm | 2 min | 1011.6 hPa |
| 16:18 | 22.4 °C | 11.5 °C | 50 % | 6 km/h (13 km/h) | 0 mm | 2 min | 1011.8 hPa |
| 16:12 | 21.7 °C | 12.3 °C | 55 % | 9 km/h (22 km/h) | 0 mm | 2 min | 1012 hPa |
| 16:06 | 21.5 °C | 11.2 °C | 52 % | 15 km/h (34 km/h) | 0 mm | 0 min | 1012.1 hPa |
| 16:00 | 22.1 °C | 11.2 °C | 50 % | 13 km/h (34 km/h) | 0 mm | 0 min | 1012.3 hPa |
| 15:54 | 23.1 °C | 10.5 °C | 45 % | 8 km/h (17 km/h) | 0 mm | 0 min | 1012.2 hPa |
| 15:48 | 23.2 °C | 10.9 °C | 46 % | 7 km/h (18 km/h) | 0 mm | 0 min | 1012.2 hPa |
| 15:42 | 23.5 °C | 11.5 °C | 47 % | 7 km/h (19 km/h) | 0 mm | 2 min | 1012.3 hPa |
| 15:36 | 23 °C | 10.8 °C | 46 % | 8 km/h (19 km/h) | 0 mm | 2 min | 1012.4 hPa |
| 15:30 | 22.9 °C | 10.7 °C | 46 % | 8 km/h (18 km/h) | 0 mm | 0 min | 1012.5 hPa |
| 15:24 | 23.1 °C | 10.5 °C | 45 % | 8 km/h (18 km/h) | 0 mm | 0 min | 1012.5 hPa |
| 15:18 | 23.5 °C | 10.5 °C | 44 % | 8 km/h (18 km/h) | 0 mm | 4 min | 1012.7 hPa |
| 15:12 | 23.1 °C | 11.2 °C | 47 % | 9 km/h (18 km/h) | 0 mm | 3 min | 1012.7 hPa |
| 15:06 | 22.6 °C | 10.1 °C | 45 % | 12 km/h (24 km/h) | 0 mm | 0 min | 1012.8 hPa |
| 15:00 | 23.1 °C | 10.2 °C | 44 % | 12 km/h (24 km/h) | 0 mm | 2 min | 1012.8 hPa |
| 14:54 | 23.3 °C | 11.4 °C | 47 % | 10 km/h (21 km/h) | 0 mm | 5 min | 1012.8 hPa |
| 14:48 | 22.5 °C | 11.2 °C | 49 % | 10 km/h (25 km/h) | 0 mm | 2 min | 1012.9 hPa |
| 14:42 | 22.1 °C | 11.2 °C | 50 % | 10 km/h (22 km/h) | 0 mm | 0 min | 1012.9 hPa |
| 14:36 | 22.2 °C | 11.3 °C | 50 % | 10 km/h (22 km/h) | 0 mm | 0 min | 1013 hPa |
| 14:30 | 22.4 °C | 11.5 °C | 50 % | 9 km/h (19 km/h) | 0 mm | 1 min | 1013.1 hPa |
| 14:24 | 22 °C | 11.4 °C | 51 % | 10 km/h (22 km/h) | 0 mm | 0 min | 1013.2 hPa |
| 14:18 | 22.1 °C | 11.5 °C | 51 % | 11 km/h (25 km/h) | 0 mm | 0 min | 1013.2 hPa |
| 14:12 | 22 °C | 10.8 °C | 49 % | 11 km/h (25 km/h) | 0 mm | 0 min | 1013.3 hPa |
| 14:06 | 22.4 °C | 10.8 °C | 48 % | 11 km/h (21 km/h) | 0 mm | 0 min | 1013.4 hPa |
| 14:00 | 22.2 °C | 10.7 °C | 48 % | 9 km/h (18 km/h) | 0 mm | 2 min | 1013.4 hPa |
| 13:54 | 21.9 °C | 10.1 °C | 47 % | 11 km/h (29 km/h) | 0 mm | 0 min | 1013.4 hPa |
| 13:48 | 21.9 °C | 10.4 °C | 48 % | 12 km/h (29 km/h) | 0 mm | 0 min | 1013.5 hPa |
| 13:42 | 22 °C | 10.5 °C | 48 % | 11 km/h (21 km/h) | 0 mm | 0 min | 1013.5 hPa |
| 13:36 | 21.9 °C | 10.4 °C | 48 % | 11 km/h (23 km/h) | 0 mm | 1 min | 1013.6 hPa |
| 13:30 | 21.9 °C | 10.7 °C | 49 % | 10 km/h (25 km/h) | 0 mm | 0 min | 1013.6 hPa |
| 13:24 | 21.6 °C | 10.7 °C | 50 % | 12 km/h (25 km/h) | 0 mm | 0 min | 1013.8 hPa |
| 13:18 | 21.6 °C | 10.4 °C | 49 % | 11 km/h (22 km/h) | 0 mm | 0 min | 1013.9 hPa |
| 13:12 | 21.6 °C | 10.1 °C | 48 % | 12 km/h (23 km/h) | 0 mm | 0 min | 1013.9 hPa |
| 13:06 | 22 °C | 10.5 °C | 48 % | 12 km/h (23 km/h) | 0 mm | 0 min | 1013.9 hPa |
| 13:00 | 22.1 °C | 10.9 °C | 49 % | 12 km/h (24 km/h) | 0 mm | 5 min | 1013.9 hPa |
| 12:54 | 21.5 °C | 10.3 °C | 49 % | 12 km/h (25 km/h) | 0 mm | 2 min | 1014.1 hPa |
| 12:48 | 21.8 °C | 10.3 °C | 48 % | 10 km/h (25 km/h) | 0 mm | 0 min | 1014.1 hPa |
| 12:42 | 21.8 °C | 10.9 °C | 50 % | 10 km/h (23 km/h) | 0 mm | 5 min | 1014.1 hPa |
| 12:36 | 21.2 °C | 10.1 °C | 49 % | 10 km/h (22 km/h) | 0 mm | 0 min | 1014.2 hPa |
| 12:30 | 20.8 °C | 10.3 °C | 51 % | 12 km/h (27 km/h) | 0 mm | 0 min | 1014.3 hPa |
| 12:24 | 20.7 °C | 9.9 °C | 50 % | 11 km/h (24 km/h) | 0 mm | 0 min | 1014.3 hPa |
| 12:18 | 20.6 °C | 9.8 °C | 50 % | 10 km/h (23 km/h) | 0 mm | 0 min | 1014.4 hPa |
| 12:12 | 20.5 °C | 9.7 °C | 50 % | 12 km/h (25 km/h) | 0 mm | 0 min | 1014.4 hPa |
| 12:06 | 20.5 °C | 9.4 °C | 49 % | 11 km/h (24 km/h) | 0 mm | 0 min | 1014.4 hPa |
| 12:00 | 20.8 °C | 9.7 °C | 49 % | 12 km/h (30 km/h) | 0 mm | 0 min | 1014.4 hPa |
| 11:54 | 20.7 °C | 9.3 °C | 48 % | 15 km/h (30 km/h) | 0 mm | 0 min | 1014.4 hPa |
| 11:48 | 21.3 °C | 9.5 °C | 47 % | 16 km/h (34 km/h) | 0 mm | 3 min | 1014.4 hPa |
| 11:42 | 21.8 °C | 10 °C | 47 % | 13 km/h (32 km/h) | 0 mm | 6 min | 1014.4 hPa |
| 11:36 | 22.3 °C | 11.7 °C | 51 % | 9 km/h (26 km/h) | 0 mm | 6 min | 1014.2 hPa |
| 11:30 | 21 °C | 11.6 °C | 55 % | 10 km/h (26 km/h) | 0 mm | 6 min | 1014.3 hPa |
| 11:24 | 20.1 °C | 9.6 °C | 51 % | 10 km/h (25 km/h) | 0 mm | 1 min | 1014.4 hPa |
| 11:18 | 20.1 °C | 9.9 °C | 52 % | 9 km/h (26 km/h) | 0 mm | 2 min | 1014.4 hPa |
| 11:12 | 19.7 °C | 9.6 °C | 52 % | 14 km/h (42 km/h) | 0 mm | 0 min | 1014.5 hPa |
| 11:06 | 19.7 °C | 9.3 °C | 51 % | 15 km/h (42 km/h) | 0 mm | 0 min | 1014.6 hPa |
| 11:00 | 19.8 °C | 9.4 °C | 51 % | 14 km/h (29 km/h) | 0 mm | 0 min | 1014.5 hPa |
| 10:54 | 20 °C | 9.5 °C | 51 % | 15 km/h (32 km/h) | 0 mm | 5 min | 1014.5 hPa |
| 10:48 | 19.8 °C | 9.4 °C | 51 % | 14 km/h (31 km/h) | 0 mm | 5 min | 1014.5 hPa |
| 10:42 | 19.7 °C | 9.3 °C | 51 % | 17 km/h (38 km/h) | 0 mm | 6 min | 1014.5 hPa |
| 10:36 | 19.3 °C | 9.2 °C | 52 % | 17 km/h (37 km/h) | 0 mm | 6 min | 1014.6 hPa |
| 10:30 | 18.9 °C | 9.1 °C | 53 % | 18 km/h (36 km/h) | 0 mm | 6 min | 1014.6 hPa |
| 10:24 | 18.6 °C | 8.8 °C | 53 % | 16 km/h (35 km/h) | 0.2 mm | 4 min | 1014.5 hPa |
| 10:18 | 18.4 °C | 9.2 °C | 55 % | 13 km/h (36 km/h) | 0 mm | 0 min | 1014.5 hPa |
| 10:12 | 18.1 °C | 8.9 °C | 55 % | 15 km/h (36 km/h) | 0 mm | 0 min | 1014.6 hPa |
| 10:06 | 17.9 °C | 9 °C | 56 % | 15 km/h (32 km/h) | 0 mm | 0 min | 1014.7 hPa |
| 10:00 | 17.7 °C | 9.1 °C | 57 % | 16 km/h (33 km/h) | 0 mm | 0 min | 1014.7 hPa |
| 09:54 | 17.5 °C | 8.9 °C | 57 % | 15 km/h (36 km/h) | 0 mm | 0 min | 1014.7 hPa |
| 09:48 | 17.3 °C | 9 °C | 58 % | 16 km/h (36 km/h) | 0 mm | 0 min | 1014.7 hPa |
| 09:42 | 17.2 °C | 8.9 °C | 58 % | 13 km/h (27 km/h) | 0 mm | 0 min | 1014.7 hPa |
| 09:36 | 17.2 °C | 8.9 °C | 58 % | 11 km/h (23 km/h) | 0 mm | 0 min | 1014.7 hPa |
| 09:30 | 17.1 °C | 9 °C | 59 % | 10 km/h (20 km/h) | 0 mm | 0 min | 1014.7 hPa |
| 09:24 | 17 °C | 9.2 °C | 60 % | 9 km/h (25 km/h) | 0 mm | 0 min | 1014.7 hPa |
| 09:18 | 16.8 °C | 9 °C | 60 % | 8 km/h (25 km/h) | 0 mm | 0 min | 1014.7 hPa |
| 09:12 | 16.6 °C | 9 °C | 61 % | 9 km/h (21 km/h) | 0 mm | 0 min | 1014.6 hPa |
| 09:06 | 16.5 °C | 8.9 °C | 61 % | 10 km/h (20 km/h) | 0 mm | 0 min | 1014.7 hPa |
| 09:00 | 16.4 °C | 8.9 °C | 61 % | 9 km/h (21 km/h) | 0 mm | 0 min | 1014.6 hPa |
| 08:54 | 16.2 °C | 8.7 °C | 61 % | 9 km/h (21 km/h) | 0 mm | 0 min | 1014.6 hPa |
| 08:48 | 16.1 °C | 8.8 °C | 62 % | 7 km/h (16 km/h) | 0 mm | 0 min | 1014.5 hPa |
| 08:42 | 16 °C | 8.7 °C | 62 % | 8 km/h (19 km/h) | 0 mm | 0 min | 1014.6 hPa |
| 08:36 | 16 °C | 8.7 °C | 62 % | 7 km/h (19 km/h) | 0 mm | 0 min | 1014.6 hPa |
| 08:30 | 15.9 °C | 8.9 °C | 63 % | 6 km/h (13 km/h) | 0 mm | 0 min | 1014.5 hPa |
| 08:24 | 15.8 °C | 8.8 °C | 63 % | 5 km/h (12 km/h) | 0 mm | 0 min | 1014.6 hPa |
| 08:18 | 15.7 °C | 8.7 °C | 63 % | 4 km/h (15 km/h) | 0 mm | 0 min | 1014.5 hPa |
| 08:12 | 15.6 °C | 8.8 °C | 64 % | 5 km/h (15 km/h) | 0 mm | 0 min | 1014.4 hPa |
| 08:06 | 15.5 °C | 8.7 °C | 64 % | 7 km/h (16 km/h) | 0 mm | 0 min | 1014.4 hPa |
| 08:00 | 15.4 °C | 8.6 °C | 64 % | 6 km/h (15 km/h) | 0 mm | 0 min | 1014.4 hPa |
| 07:54 | 15.3 °C | 8.8 °C | 65 % | 6 km/h (14 km/h) | 0 mm | 0 min | 1014.3 hPa |
| 07:48 | 15.2 °C | 8.7 °C | 65 % | 6 km/h (15 km/h) | 0 mm | 0 min | 1014.2 hPa |
| 07:42 | 15.1 °C | 8.6 °C | 65 % | 7 km/h (19 km/h) | 0 mm | 0 min | 1014.2 hPa |
| 07:36 | 15.1 °C | 8.8 °C | 66 % | 7 km/h (19 km/h) | 0 mm | 0 min | 1014.1 hPa |
| 07:30 | 15 °C | 8.9 °C | 67 % | 5 km/h (12 km/h) | 0 mm | 0 min | 1014.1 hPa |
| 07:24 | 14.8 °C | 8.7 °C | 67 % | 5 km/h (12 km/h) | 0 mm | 0 min | 1014 hPa |
| 07:18 | 14.8 °C | 8.7 °C | 67 % | 4 km/h (12 km/h) | 0 mm | 0 min | 1013.9 hPa |
| 07:12 | 14.7 °C | 8.9 °C | 68 % | 4 km/h (12 km/h) | 0 mm | 0 min | 1013.9 hPa |
| 07:06 | 14.7 °C | 8.9 °C | 68 % | 5 km/h (14 km/h) | 0 mm | 0 min | 1013.8 hPa |
| 07:00 | 14.7 °C | 9.1 °C | 69 % | 6 km/h (14 km/h) | 0 mm | 0 min | 1013.7 hPa |
| 06:54 | 14.8 °C | 9.2 °C | 69 % | 8 km/h (14 km/h) | 0 mm | 0 min | 1013.7 hPa |
| 06:48 | 14.7 °C | 9.1 °C | 69 % | 7 km/h (14 km/h) | 0 mm | 0 min | 1013.7 hPa |
| 06:42 | 14.7 °C | 9.1 °C | 69 % | 6 km/h (14 km/h) | 0 mm | 0 min | 1013.8 hPa |
| 06:36 | 14.6 °C | 9.2 °C | 70 % | 8 km/h (17 km/h) | 0 mm | 0 min | 1013.8 hPa |
| 06:30 | 14.6 °C | 9.4 °C | 71 % | 9 km/h (17 km/h) | 0 mm | 0 min | 1013.8 hPa |
| 06:24 | 14.5 °C | 9.3 °C | 71 % | 7 km/h (15 km/h) | 0 mm | 0 min | 1013.8 hPa |
| 06:18 | 14.4 °C | 9.4 °C | 72 % | 6 km/h (11 km/h) | 0 mm | 0 min | 1013.9 hPa |
| 06:12 | 14.4 °C | 9.2 °C | 71 % | 5 km/h (11 km/h) | 0 mm | 0 min | 1013.9 hPa |
| 06:06 | 14.4 °C | 9.2 °C | 71 % | 4 km/h (12 km/h) | 0 mm | 0 min | 1014 hPa |
| 06:00 | 14.4 °C | 9.4 °C | 72 % | 4 km/h (12 km/h) | 0 mm | 0 min | 1014 hPa |
| 05:54 | 14.3 °C | 9.3 °C | 72 % | 2 km/h (7 km/h) | 0 mm | 0 min | 1014.1 hPa |
| 05:48 | 14.4 °C | 10 °C | 75 % | 2 km/h (4 km/h) | 0 mm | 0 min | 1014.2 hPa |
| 05:42 | 14.4 °C | 9.8 °C | 74 % | 3 km/h (5 km/h) | 0 mm | 0 min | 1014.3 hPa |
| 05:36 | 14.5 °C | 9.7 °C | 73 % | 3 km/h (5 km/h) | 0 mm | 0 min | 1014.3 hPa |
| 05:30 | 14.6 °C | 9.4 °C | 71 % | 3 km/h (14 km/h) | 0 mm | 0 min | 1014.3 hPa |
| 05:24 | 14.7 °C | 8.6 °C | 67 % | 5 km/h (14 km/h) | 0 mm | 0 min | 1014.3 hPa |
| 05:18 | 14.7 °C | 8.6 °C | 67 % | 4 km/h (8 km/h) | 0 mm | 0 min | 1014.3 hPa |
| 05:12 | 14.6 °C | 8.8 °C | 68 % | 4 km/h (10 km/h) | 0 mm | 0 min | 1014.3 hPa |
| 05:06 | 14.7 °C | 8.6 °C | 67 % | 4 km/h (9 km/h) | 0 mm | 0 min | 1014.3 hPa |
| 05:00 | 14.8 °C | 8.7 °C | 67 % | 5 km/h (12 km/h) | 0 mm | 0 min | 1014.4 hPa |
| 04:54 | 14.8 °C | 8.1 °C | 64 % | 5 km/h (12 km/h) | 0 mm | 0 min | 1014.5 hPa |
| 04:48 | 14.8 °C | 8.1 °C | 64 % | 6 km/h (12 km/h) | 0 mm | 0 min | 1014.5 hPa |
| 04:42 | 14.9 °C | 8.1 °C | 64 % | 5 km/h (12 km/h) | 0 mm | 0 min | 1014.5 hPa |
| 04:36 | 15 °C | 8.2 °C | 64 % | 6 km/h (16 km/h) | 0 mm | 0 min | 1014.5 hPa |
| 04:30 | 15 °C | 8 °C | 63 % | 6 km/h (16 km/h) | 0 mm | 0 min | 1014.5 hPa |
| 04:24 | 15.1 °C | 7.9 °C | 62 % | 8 km/h (16 km/h) | 0 mm | 0 min | 1014.5 hPa |
| 04:18 | 15.2 °C | 8 °C | 62 % | 9 km/h (20 km/h) | 0 mm | 0 min | 1014.5 hPa |
| 04:12 | 15.3 °C | 8.1 °C | 62 % | 9 km/h (22 km/h) | 0 mm | 0 min | 1014.5 hPa |
| 04:06 | 15.5 °C | 8 °C | 61 % | 9 km/h (22 km/h) | 0 mm | 0 min | 1014.6 hPa |
| 04:00 | 15.6 °C | 7.6 °C | 59 % | 8 km/h (18 km/h) | 0 mm | 0 min | 1014.6 hPa |
| 03:54 | 15.7 °C | 7.7 °C | 59 % | 8 km/h (19 km/h) | 0 mm | 0 min | 1014.6 hPa |
| 03:48 | 15.8 °C | 7.8 °C | 59 % | 7 km/h (21 km/h) | 0 mm | 0 min | 1014.7 hPa |
| 03:42 | 15.9 °C | 7.4 °C | 57 % | 7 km/h (21 km/h) | 0 mm | 0 min | 1014.7 hPa |
| 03:36 | 15.9 °C | 7.1 °C | 56 % | 8 km/h (26 km/h) | 0 mm | 0 min | 1014.6 hPa |
| 03:30 | 15.9 °C | 7.1 °C | 56 % | 8 km/h (26 km/h) | 0 mm | 0 min | 1014.6 hPa |
| 03:24 | 15.7 °C | 7.2 °C | 57 % | 7 km/h (19 km/h) | 0 mm | 0 min | 1014.5 hPa |
| 03:18 | 15.6 °C | 7.1 °C | 57 % | 6 km/h (19 km/h) | 0 mm | 0 min | 1014.6 hPa |
| 03:12 | 15.6 °C | 7.4 °C | 58 % | 6 km/h (20 km/h) | 0 mm | 0 min | 1014.7 hPa |
| 03:06 | 15.5 °C | 7.5 °C | 59 % | 5 km/h (16 km/h) | 0 mm | 0 min | 1014.8 hPa |
| 03:00 | 15.5 °C | 7.8 °C | 60 % | 5 km/h (14 km/h) | 0 mm | 0 min | 1014.8 hPa |
| 02:54 | 15.5 °C | 7.8 °C | 60 % | 4 km/h (13 km/h) | 0 mm | 0 min | 1014.9 hPa |
| 02:48 | 15.6 °C | 7.9 °C | 60 % | 4 km/h (13 km/h) | 0 mm | 0 min | 1014.9 hPa |
| 02:42 | 15.6 °C | 8.1 °C | 61 % | 4 km/h (9 km/h) | 0 mm | 0 min | 1014.9 hPa |
| 02:36 | 15.7 °C | 8.2 °C | 61 % | 4 km/h (8 km/h) | 0 mm | 0 min | 1015 hPa |
| 02:30 | 15.7 °C | 8.2 °C | 61 % | 4 km/h (8 km/h) | 0 mm | 0 min | 1015.1 hPa |
| 02:24 | 15.8 °C | 8.3 °C | 61 % | 4 km/h (6 km/h) | 0 mm | 0 min | 1015.2 hPa |
| 02:18 | 15.9 °C | 8.4 °C | 61 % | 3 km/h (7 km/h) | 0 mm | 0 min | 1015.3 hPa |
| 02:12 | 15.9 °C | 8.1 °C | 60 % | 3 km/h (7 km/h) | 0 mm | 0 min | 1015.4 hPa |
| 02:06 | 16 °C | 8.2 °C | 60 % | 3 km/h (5 km/h) | 0 mm | 0 min | 1015.5 hPa |
| 02:00 | 16.1 °C | 8.3 °C | 60 % | 3 km/h (6 km/h) | 0 mm | 0 min | 1015.5 hPa |
| 01:54 | 16.2 °C | 8.2 °C | 59 % | 3 km/h (6 km/h) | 0 mm | 0 min | 1015.4 hPa |
| 01:48 | 16.2 °C | 8.2 °C | 59 % | 4 km/h (8 km/h) | 0 mm | 0 min | 1015.5 hPa |
| 01:42 | 16.3 °C | 8.3 °C | 59 % | 4 km/h (6 km/h) | 0 mm | 0 min | 1015.6 hPa |
| 01:36 | 16.4 °C | 8.1 °C | 58 % | 4 km/h (7 km/h) | 0 mm | 0 min | 1015.5 hPa |
| 01:30 | 16.5 °C | 8.2 °C | 58 % | 4 km/h (7 km/h) | 0 mm | 0 min | 1015.6 hPa |
| 01:24 | 16.6 °C | 8.3 °C | 58 % | 4 km/h (6 km/h) | 0 mm | 0 min | 1015.7 hPa |
| 01:18 | 16.8 °C | 8.2 °C | 57 % | 4 km/h (8 km/h) | 0 mm | 0 min | 1015.7 hPa |
| 01:12 | 16.9 °C | 8.3 °C | 57 % | 4 km/h (8 km/h) | 0 mm | 0 min | 1015.7 hPa |
| 01:06 | 17 °C | 8.2 °C | 56 % | 4 km/h (8 km/h) | 0 mm | 0 min | 1015.7 hPa |
| 01:00 | 17.1 °C | 8.2 °C | 56 % | 4 km/h (7 km/h) | 0 mm | 0 min | 1015.6 hPa |
| 00:54 | 17.2 °C | 8.3 °C | 56 % | 4 km/h (10 km/h) | 0 mm | 0 min | 1015.7 hPa |
| 00:48 | 17.3 °C | 8.2 °C | 55 % | 5 km/h (11 km/h) | 0 mm | 0 min | 1015.7 hPa |
| 00:42 | 17.4 °C | 8.3 °C | 55 % | 6 km/h (13 km/h) | 0 mm | 0 min | 1015.8 hPa |
| 00:36 | 17.5 °C | 8.1 °C | 54 % | 7 km/h (17 km/h) | 0 mm | 0 min | 1015.9 hPa |
| 00:30 | 17.6 °C | 8.2 °C | 54 % | 8 km/h (20 km/h) | 0 mm | 0 min | 1015.9 hPa |
| 00:24 | 17.6 °C | 8.2 °C | 54 % | 7 km/h (15 km/h) | 0 mm | 0 min | 1016 hPa |
| 00:18 | 17.7 °C | 8.5 °C | 55 % | 7 km/h (21 km/h) | 0 mm | 0 min | 1016 hPa |
| 00:12 | 17.8 °C | 8.6 °C | 55 % | 9 km/h (21 km/h) | 0 mm | 0 min | 1015.9 hPa |
| 00:06 | 17.8 °C | 8.6 °C | 55 % | 10 km/h (21 km/h) | 0 mm | 0 min | 1015.9 hPa |
| 00:00 | 17.9 °C | 8.7 °C | 55 % | 10 km/h (22 km/h) | 0 mm | 0 min | 1016 hPa |
Données via Météo-France
Vigilance
Dernière mise à jour Dimanche à 16:00
Fil d'actualités
Il y a 11 minutesVoir plus
Attention à quelques bancs de brouillard qui pourront être présents en fin de nuit/début de matinée et réduire la visibilité sur les routes. Soyez prudents ! 😁 Hugo
Il y a 44 minutesVoir plus
Encore quelques averses orageuses ce soir, notamment sur le Cambrésis. Elles vont se raréfier dans les prochaines heures, mais quelques coups de tonnerre resteront possibles jusqu'en fin de soirée :) Hugo
Il y a 3 heuresVoir plus
> Prévisions pour le 04/05 : Ciel généralement couvert en matinée, avec tout de même quelques rares éclaircies. Rapidement vers la fin de matinée, des averses orageuses prendront naissance autour de l'Avesnois. Ces averses pourront se généraliser aux secteurs limitrophes dans l'après-midi (Cambrésis, Valenciennois, ... jusqu'à la métropolle Lilloise et l'Artois) en cours d'après-midi, mais sans certitude. Ces averses orageuses seront très peu mobiles et très localisées: quelques inondations localisées sont possibles sur les secteurs habitués dans ce genre de situation. Compte tenu de la difficulté de la prévision et du caractère très localisé de ces averses, on pourrait passer à côté... ou non. Baisse des températures au global sur la région, avec pas plus de 17°C pour les maximales ! En matinée, températures comprises entre 11°C et 12°C. Vent faible. Dans l'après-midi, températures comprises entre 12°C et 17°C. Vent faible. Pensez à regarder les cartes pour voir le temps prévu! Bonne soirée ! :) Hugo. ---- 👉 Retrouvez les prévisions pour votre ville sur https://meteo-npdc.fr/previsions/ma-ville/
Il y a 5 heuresVoir plus
⚡️ Alors que nos averses orageuses quittent la région par la Belgique, d'autres se situent encore entre Cambrésis/Avesnois/Valenciennois... et d'autres arrivent encore par la Picardie ! Il y a encore de la réserve derrière, ce n'est donc pas encore totalement terminé. Fin prévue en soirée :) Hugo
Il y a 7 heuresVoir plus
⚡️ L'essentiel de l'activité orageuse se situe entre Arras et Lille maintenant, où les pluies sont également les plus intenses. Ailleurs, pluies modérées et ponctuellment fortes... ou rien du tout ! 😁 Cet orage va remonter sur la métropole Lilloise avant de nous quitter vers la Belgique très bientôt :)
